Time;durP1;ratioP1;P1;durP2;ratioP2;P2;SDS_P1;SDS_P2;PMS_P1;PMS_P2;Temp;Humidity;BMP_temperature;BMP_pressure;BME280_temperature;BME280_humidity;BME280_pressure;Samples;Min_cycle;Max_cycle;Signal;HPM_P1;HPM_P2
2022/06/25 00:01:05;;;;;;;;;0.33;0.33;;;;;21.68;100.00;100479.53;4962797;28;45768;-69
2022/06/25 00:03:30;;;;;;;;;1.67;1.00;;;;;21.68;100.00;100482.31;4964426;28;45699;-69
2022/06/25 00:05:56;;;;;;;;;1.00;1.00;;;;;21.69;100.00;100472.81;4956360;28;45586;-68
2022/06/25 00:08:22;;;;;;;;;0.00;0.00;;;;;21.69;100.00;100466.38;4951582;28;46516;-68
2022/06/25 00:10:47;;;;;;;;;0.00;0.00;;;;;21.66;100.00;100469.75;4966156;28;45667;-69
2022/06/25 00:13:12;;;;;;;;;0.33;0.33;;;;;21.65;100.00;100477.31;4953920;28;45491;-67
2022/06/25 00:15:38;;;;;;;;;2.00;0.67;;;;;21.64;100.00;100477.59;4955357;28;45371;-68
2022/06/25 00:18:03;;;;;;;;;0.00;0.00;;;;;21.59;100.00;100470.09;4957952;28;45701;-68
2022/06/25 00:20:28;;;;;;;;;0.33;0.33;;;;;21.60;100.00;100471.78;4962028;28;45417;-68
2022/06/25 00:22:54;;;;;;;;;3.00;1.00;;;;;21.59;100.00;100472.06;4946466;28;45889;-68
2022/06/25 00:25:19;;;;;;;;;0.33;0.00;;;;;21.59;100.00;100474.84;4936551;28;45631;-68
2022/06/25 00:27:45;;;;;;;;;1.00;1.00;;;;;21.58;100.00;100471.22;4937288;28;46005;-68
2022/06/25 00:30:10;;;;;;;;;1.00;1.00;;;;;21.56;100.00;100470.69;4937501;28;45805;-69
2022/06/25 00:32:36;;;;;;;;;0.67;0.67;;;;;21.56;100.00;100467.03;4925709;28;46581;-69
2022/06/25 00:35:03;;;;;;;;;4.00;1.00;;;;;21.55;100.00;100470.97;4937691;28;45493;-68
2022/06/25 00:37:29;;;;;;;;;3.00;2.00;;;;;21.52;100.00;100467.63;4935839;28;46683;-69
2022/06/25 00:39:54;;;;;;;;;1.00;1.00;;;;;21.53;100.00;100471.25;4947326;28;45772;-68
2022/06/25 00:42:20;;;;;;;;;0.33;0.33;;;;;21.52;100.00;100473.19;4948179;28;45297;-68
2022/06/25 00:44:45;;;;;;;;;1.00;1.00;;;;;21.52;100.00;100472.38;4945866;28;45545;-68
2022/06/25 00:47:13;;;;;;;;;1.00;0.67;;;;;21.48;100.00;100469.31;4938099;28;45349;-69
2022/06/25 00:49:39;;;;;;;;;1.67;1.67;;;;;21.50;100.00;100483.00;4934407;28;45430;-68
2022/06/25 00:52:13;;;;;;;;;1.00;1.00;;;;;21.49;100.00;100484.09;4940008;28;45450;-68
2022/06/25 00:54:45;;;;;;;;;1.00;1.00;;;;;21.50;100.00;100480.22;4936755;28;45532;-68
2022/06/25 00:57:17;;;;;;;;;2.00;0.33;;;;;21.50;100.00;100483.00;4938582;28;46571;-68
2022/06/25 00:59:44;;;;;;;;;1.67;1.67;;;;;21.51;100.00;100493.03;4934750;28;45754;-68
2022/06/25 01:02:10;;;;;;;;;1.00;1.00;;;;;21.53;100.00;100485.22;4943089;28;45884;-69
2022/06/25 01:04:39;;;;;;;;;0.00;0.00;;;;;21.53;100.00;100485.22;4939807;28;45530;-69
2022/06/25 01:07:06;;;;;;;;;1.00;1.00;;;;;21.51;100.00;100484.66;4940679;28;45826;-66
2022/06/25 01:09:33;;;;;;;;;0.33;0.33;;;;;21.49;100.00;100496.06;4943130;28;45753;-69
2022/06/25 01:11:58;;;;;;;;;2.00;2.00;;;;;21.45;100.00;100500.59;4940239;28;45481;-68
2022/06/25 01:14:23;;;;;;;;;3.00;3.00;;;;;21.46;100.00;100504.19;4935587;28;45549;-69
2022/06/25 01:16:49;;;;;;;;;1.00;1.00;;;;;21.47;100.00;100494.72;4941716;28;45534;-70
2022/06/25 01:19:14;;;;;;;;;0.00;0.00;;;;;21.44;100.00;100495.28;4937155;28;45656;-70
2022/06/25 01:21:42;;;;;;;;;1.00;1.00;;;;;21.45;100.00;100485.78;4935868;28;45703;-69
2022/06/25 01:24:08;;;;;;;;;0.67;0.67;;;;;21.48;100.00;100497.22;4916027;28;46047;-69
2022/06/25 01:26:39;;;;;;;;;0.00;0.00;;;;;21.45;100.00;100494.16;4934147;28;46235;-67
2022/06/25 01:29:06;;;;;;;;;1.00;1.00;;;;;21.46;100.00;100495.81;4937516;28;45412;-69
2022/06/25 01:31:31;;;;;;;;;1.33;1.33;;;;;21.46;100.00;100493.03;4937738;28;45811;-68
2022/06/25 01:33:58;;;;;;;;;1.00;1.00;;;;;21.45;100.00;100488.56;4951861;28;45639;-69
2022/06/25 01:36:24;;;;;;;;;1.00;1.00;;;;;21.47;100.00;100494.72;4935178;28;47079;-68
2022/06/25 01:38:50;;;;;;;;;2.00;0.00;;;;;21.47;100.00;100498.31;4933205;28;45435;-67
2022/06/25 01:41:16;;;;;;;;;1.67;1.67;;;;;21.45;100.00;100489.44;4921358;28;45779;-67
2022/06/25 01:43:42;;;;;;;;;3.00;2.00;;;;;21.43;100.00;100490.81;4940535;28;45720;-68
2022/06/25 01:46:08;;;;;;;;;0.67;0.67;;;;;21.44;100.00;100493.31;4940412;28;45988;-68
2022/06/25 01:48:34;;;;;;;;;0.67;0.00;;;;;21.42;100.00;100492.78;4936592;28;45455;-69
2022/06/25 01:50:59;;;;;;;;;1.33;1.33;;;;;21.40;100.00;100489.44;4933448;28;45397;-70
2022/06/25 01:53:25;;;;;;;;;1.00;1.00;;;;;21.44;100.00;100492.50;4931016;28;45851;-67
2022/06/25 01:55:50;;;;;;;;;1.33;1.00;;;;;21.41;100.00;100496.69;4932983;28;45568;-68
2022/06/25 01:58:16;;;;;;;;;1.67;1.67;;;;;21.37;100.00;100497.56;4933350;28;46630;-68
2022/06/25 02:00:42;;;;;;;;;1.00;1.00;;;;;21.35;100.00;100503.44;4941241;28;45664;-68
2022/06/25 02:03:08;;;;;;;;;2.33;0.67;;;;;21.31;100.00;100494.78;4923728;28;45930;-68
2022/06/25 02:08:18;;;;;;;;;4.00;1.00;;;;;21.25;100.00;100493.13;4948972;28;45694;-69
2022/06/25 02:10:48;;;;;;;;;1.00;1.00;;;;;21.25;100.00;100501.50;4938570;28;45596;-68
2022/06/25 02:13:15;;;;;;;;;1.00;1.00;;;;;21.27;100.00;100515.16;4929024;28;47281;-68
2022/06/25 02:15:40;;;;;;;;;1.00;1.00;;;;;21.15;100.00;100495.97;4936757;28;46235;-69
2022/06/25 02:18:06;;;;;;;;;1.00;1.00;;;;;21.25;100.00;100506.25;4937334;28;45587;-67
2022/06/25 02:20:31;;;;;;;;;1.33;1.33;;;;;21.23;100.00;100506.56;4936813;28;45648;-70
2022/06/25 02:22:58;;;;;;;;;1.00;1.00;;;;;21.22;100.00;100510.44;4951396;28;45678;-67
2022/06/25 02:25:23;;;;;;;;;1.00;1.00;;;;;21.21;100.00;100513.53;4957444;28;45533;-70
2022/06/25 02:27:49;;;;;;;;;3.00;2.00;;;;;21.17;100.00;100510.50;4957193;28;45639;-70
2022/06/25 02:30:14;;;;;;;;;2.00;2.00;;;;;21.20;100.00;100515.50;4969924;28;45592;-68
2022/06/25 02:32:39;;;;;;;;;1.33;1.33;;;;;21.17;100.00;100519.69;4966444;28;45689;-69
2022/06/25 02:35:05;;;;;;;;;1.00;1.00;;;;;21.14;100.00;100522.22;4962417;28;45419;-69
2022/06/25 02:37:30;;;;;;;;;2.00;1.67;;;;;21.08;100.00;100520.56;4969834;28;45849;-67
2022/06/25 02:39:56;;;;;;;;;3.00;1.67;;;;;21.07;100.00;100518.91;4965909;28;45697;-68
2022/06/25 02:42:22;;;;;;;;;7.00;6.00;;;;;21.07;100.00;100533.66;4953106;28;45653;-67
2022/06/25 02:44:47;;;;;;;;;1.67;1.67;;;;;21.06;100.00;100537.56;4953913;28;45907;-69
2022/06/25 02:47:13;;;;;;;;;3.00;1.00;;;;;21.05;100.00;100537.84;4937589;28;45827;-67
2022/06/25 02:49:38;;;;;;;;;1.33;1.33;;;;;21.00;100.00;100535.91;4958814;28;45497;-68
2022/06/25 02:52:04;;;;;;;;;2.00;1.00;;;;;20.97;100.00;100533.69;4956985;28;46069;-68
2022/06/25 02:54:29;;;;;;;;;2.67;2.67;;;;;20.88;100.00;100525.06;4957018;28;46511;-68
2022/06/25 02:59:40;;;;;;;;;2.33;1.00;;;;;20.84;100.00;100531.50;4957657;28;45845;-67
2022/06/25 03:02:06;;;;;;;;;1.00;1.00;;;;;20.78;100.00;100525.97;4959689;28;45439;-68
2022/06/25 03:04:32;;;;;;;;;7.33;3.33;;;;;20.81;100.00;100530.97;4961313;28;46299;-68
2022/06/25 03:06:58;;;;;;;;;2.67;1.00;;;;;20.77;100.00;100520.66;4964339;28;45544;-67
2022/06/25 03:09:23;;;;;;;;;3.00;1.00;;;;;20.75;100.00;100525.69;4960042;28;45687;-68
2022/06/25 03:11:50;;;;;;;;;1.67;1.00;;;;;20.73;100.00;100525.13;4943222;28;47012;-68
2022/06/25 03:14:16;;;;;;;;;2.67;2.00;;;;;20.72;100.00;100529.88;4960375;28;45498;-68
2022/06/25 03:16:41;;;;;;;;;1.00;1.00;;;;;20.73;100.00;100539.06;4954670;28;45828;-68
2022/06/25 03:19:07;;;;;;;;;5.67;3.67;;;;;20.72;100.00;100537.38;4955689;28;45383;-69
2022/06/25 03:21:32;;;;;;;;;2.00;0.67;;;;;20.68;100.00;100530.72;4955960;28;46390;-69
2022/06/25 03:23:58;;;;;;;;;1.00;1.00;;;;;20.64;100.00;100531.25;4960126;28;46359;-69
2022/06/25 03:26:23;;;;;;;;;4.00;2.00;;;;;20.65;100.00;100529.31;4940794;28;45642;-69
2022/06/25 03:28:49;;;;;;;;;1.00;1.00;;;;;20.67;100.00;100526.25;4963320;28;45578;-70
2022/06/25 03:31:14;;;;;;;;;1.67;0.33;;;;;20.66;100.00;100528.22;4968261;28;45485;-70
2022/06/25 03:33:40;;;;;;;;;0.67;0.67;;;;;20.64;100.00;100519.25;4951864;28;47344;-69
2022/06/25 03:36:05;;;;;;;;;1.00;1.00;;;;;20.64;100.00;100514.53;4966398;28;45746;-68
2022/06/25 03:38:31;;;;;;;;;3.33;3.33;;;;;20.68;100.00;100533.50;4940896;28;45857;-68
2022/06/25 03:43:44;;;;;;;;;4.00;1.00;;;;;20.62;100.00;100527.06;4954323;28;45829;-67
2022/06/25 03:46:09;;;;;;;;;0.67;0.67;;;;;20.66;100.00;100541.31;4956616;28;45785;-68
2022/06/25 03:48:35;;;;;;;;;2.00;0.33;;;;;20.67;100.00;100545.78;4955159;28;45463;-68
2022/06/25 03:51:00;;;;;;;;;0.00;0.00;;;;;20.66;100.00;100539.38;4954937;28;45399;-67
2022/06/25 03:53:26;;;;;;;;;0.00;0.00;;;;;20.62;100.00;100536.25;4959593;28;45931;-68
2022/06/25 03:55:51;;;;;;;;;0.67;0.67;;;;;20.66;100.00;100539.38;4957028;28;45470;-68
2022/06/25 03:58:16;;;;;;;;;1.33;1.33;;;;;20.71;100.00;100544.09;4957312;28;45664;-67
2022/06/25 04:00:42;;;;;;;;;0.33;0.00;;;;;20.71;100.00;100544.91;4955776;28;46681;-70
2022/06/25 04:03:07;;;;;;;;;0.33;0.33;;;;;20.70;100.00;100536.84;4951103;28;47050;-69
2022/06/25 04:05:33;;;;;;;;;0.00;0.00;;;;;20.67;100.00;100535.44;4955466;28;45718;-69
2022/06/25 04:07:58;;;;;;;;;1.00;1.00;;;;;20.70;100.00;100542.41;4955616;28;45541;-68
2022/06/25 04:10:24;;;;;;;;;0.00;0.00;;;;;20.70;100.00;100550.78;4956038;28;45927;-68
2022/06/25 04:12:49;;;;;;;;;0.00;0.00;;;;;20.70;100.00;100554.38;4956047;28;46133;-70
2022/06/25 04:15:15;;;;;;;;;1.00;1.00;;;;;20.71;100.00;100547.72;4956157;28;45385;-68
2022/06/25 04:17:40;;;;;;;;;3.00;1.00;;;;;20.75;100.00;100562.75;4956090;28;45401;-68
2022/06/25 04:20:06;;;;;;;;;0.00;0.00;;;;;20.75;100.00;100559.16;4956298;28;45892;-68
2022/06/25 04:22:31;;;;;;;;;0.00;0.00;;;;;20.77;100.00;100562.47;4945011;28;47345;-68
2022/06/25 04:24:57;;;;;;;;;0.67;0.67;;;;;20.79;100.00;100574.16;4965777;28;45777;-69
2022/06/25 04:30:07;;;;;;;;;1.00;1.00;;;;;20.80;100.00;100559.13;4963277;28;45562;-69
2022/06/25 04:32:33;;;;;;;;;0.00;0.00;;;;;20.84;100.00;100571.38;4961795;28;45674;-68
2022/06/25 04:34:58;;;;;;;;;0.00;0.00;;;;;20.87;100.00;100569.97;4966058;28;45373;-68
2022/06/25 04:37:23;;;;;;;;;1.67;1.00;;;;;20.90;100.00;100578.63;4964115;28;45627;-69
2022/06/25 04:39:49;;;;;;;;;0.33;0.33;;;;;20.96;100.00;100576.66;4971370;28;45579;-68
2022/06/25 04:42:14;;;;;;;;;0.00;0.00;;;;;20.97;100.00;100581.94;4971610;28;45629;-68
2022/06/25 04:44:39;;;;;;;;;0.33;0.00;;;;;20.99;100.00;100584.44;4965659;28;45531;-71
2022/06/25 04:47:05;;;;;;;;;1.00;0.00;;;;;21.02;100.00;100580.25;4963749;28;45590;-72
2022/06/25 04:49:30;;;;;;;;;2.00;0.00;;;;;21.05;100.00;100591.69;4969910;28;45841;-72
2022/06/25 04:51:56;;;;;;;;;1.33;0.33;;;;;21.09;100.00;100592.78;4971663;28;45755;-73
2022/06/25 04:54:21;;;;;;;;;1.00;1.00;;;;;21.12;100.00;100585.78;4970473;28;45393;-73
2022/06/25 04:56:47;;;;;;;;;0.67;0.67;;;;;21.16;100.00;100590.50;4963943;28;45647;-72
2022/06/25 04:59:13;;;;;;;;;0.67;0.67;;;;;21.26;100.00;100591.63;4950902;28;46346;-72
2022/06/25 05:01:39;;;;;;;;;0.67;0.67;;;;;21.33;100.00;100592.97;4951104;28;45512;-71
2022/06/25 05:04:04;;;;;;;;;0.00;0.00;;;;;21.43;100.00;100591.25;4951070;28;46070;-71
2022/06/25 05:06:29;;;;;;;;;1.75;0.00;;;;;21.51;100.00;100599.06;4954093;28;46189;-70
2022/06/25 05:08:55;;;;;;;;;0.00;0.00;;;;;21.61;100.00;100593.44;4954251;28;46137;-72
2022/06/25 05:11:20;;;;;;;;;0.00;0.00;;;;;21.76;100.00;100600.88;4954717;28;45503;-70
2022/06/25 05:13:46;;;;;;;;;1.00;1.00;;;;;21.96;100.00;100605.53;4960779;28;45369;-70
2022/06/25 05:16:11;;;;;;;;;1.67;1.00;;;;;22.22;100.00;100605.34;4938871;28;45553;-72
2022/06/25 05:18:37;;;;;;;;;0.00;0.00;;;;;22.59;100.00;100609.56;4951543;28;47261;-72
2022/06/25 05:21:03;;;;;;;;;0.67;0.67;;;;;22.85;100.00;100600.94;4950006;28;45820;-70
2022/06/25 05:23:28;;;;;;;;;2.00;0.67;;;;;23.20;100.00;100604.47;4950885;28;47458;-71
2022/06/25 05:25:53;;;;;;;;;0.67;0.67;;;;;23.91;100.00;100593.53;4952690;28;45647;-71
2022/06/25 05:28:19;;;;;;;;;0.00;0.00;;;;;24.37;100.00;100595.63;4953985;28;45802;-72
2022/06/25 05:30:45;;;;;;;;;1.00;1.00;;;;;24.76;100.00;100600.00;4950217;28;46108;-72
2022/06/25 05:33:10;;;;;;;;;0.00;0.00;;;;;25.19;100.00;100590.47;4951131;28;45616;-71
2022/06/25 05:35:35;;;;;;;;;4.00;0.00;;;;;25.76;100.00;100592.94;4953445;28;45363;-69
2022/06/25 05:38:01;;;;;;;;;2.50;1.00;;;;;26.16;100.00;100584.75;4958981;28;45839;-71
2022/06/25 05:40:26;;;;;;;;;4.00;2.67;;;;;26.54;100.00;100594.78;4951237;28;46277;-70
2022/06/25 05:42:52;;;;;;;;;1.00;0.00;;;;;27.31;100.00;100599.16;4937344;28;45638;-69
2022/06/25 05:45:17;;;;;;;;;1.25;0.00;;;;;27.36;100.00;100600.22;4952839;28;46051;-71
2022/06/25 05:47:43;;;;;;;;;0.75;0.75;;;;;27.21;100.00;100593.81;4949523;28;45618;-70
2022/06/25 05:50:09;;;;;;;;;2.00;0.50;;;;;27.12;100.00;100595.78;4951103;28;46266;-70
2022/06/25 05:52:35;;;;;;;;;0.00;0.00;;;;;27.08;100.00;100587.16;4949641;28;46115;-70
2022/06/25 05:55:00;;;;;;;;;2.00;1.00;;;;;27.08;100.00;100589.13;4958436;28;45925;-70
2022/06/25 05:57:26;;;;;;;;;0.00;0.00;;;;;27.13;100.00;100584.19;4953204;28;45825;-71
2022/06/25 05:59:52;;;;;;;;;0.00;0.00;;;;;27.19;100.00;100593.34;4953520;28;45783;-72
2022/06/25 06:02:18;;;;;;;;;1.00;0.00;;;;;27.18;100.00;100583.22;4951329;28;45727;-70
2022/06/25 06:04:43;;;;;;;;;1.00;1.00;;;;;27.18;100.00;100590.84;4952864;28;45547;-72
2022/06/25 06:07:09;;;;;;;;;0.50;0.50;;;;;27.12;100.00;100599.41;4951500;28;45419;-70
2022/06/25 06:09:34;;;;;;;;;1.00;1.00;;;;;27.17;100.00;100594.81;4950168;28;46867;-72
2022/06/25 06:12:00;;;;;;;;;0.25;0.25;;;;;27.12;100.00;100587.34;4952845;28;45438;-71
2022/06/25 06:14:26;;;;;;;;;0.50;0.00;;;;;27.31;100.00;100592.72;4951206;28;45535;-73
2022/06/25 06:16:52;;;;;;;;;1.00;0.00;;;;;27.36;100.00;100588.94;4950900;28;45578;-71
2022/06/25 06:19:17;;;;;;;;;0.00;0.00;;;;;27.47;100.00;100602.41;4955245;28;46859;-71
2022/06/25 06:21:44;;;;;;;;;1.25;0.00;;;;;27.53;100.00;100608.72;4949765;28;45463;-71
2022/06/25 06:24:09;;;;;;;;;0.75;0.75;;;;;27.55;100.00;100605.59;4966522;28;45673;-71
2022/06/25 06:26:35;;;;;;;;;0.00;0.00;;;;;27.53;100.00;100597.47;4969714;28;45578;-73
2022/06/25 06:29:01;;;;;;;;;1.00;0.00;;;;;27.65;100.00;100599.63;4969880;28;45749;-70
2022/06/25 06:31:27;;;;;;;;;0.50;0.50;;;;;28.15;100.00;100596.38;4973067;28;45729;-70
2022/06/25 06:33:52;;;;;;;;;0.50;0.00;;;;;28.63;100.00;100603.00;4976188;28;45416;-70
2022/06/25 06:36:18;;;;;;;;;1.75;1.00;;;;;29.46;100.00;100598.06;4977551;28;45279;-72
2022/06/25 06:38:43;;;;;;;;;2.50;0.00;;;;;30.30;98.01;100603.00;4968573;28;46356;-71
2022/06/25 06:41:09;;;;;;;;;0.00;0.00;;;;;31.02;89.75;100605.63;4973853;28;46119;-71
2022/06/25 06:43:36;;;;;;;;;1.00;1.00;;;;;31.72;83.15;100607.53;4963770;28;45728;-73
2022/06/25 06:46:01;;;;;;;;;0.00;0.00;;;;;32.17;79.18;100609.34;4962915;28;46605;-70
2022/06/25 06:48:27;;;;;;;;;0.00;0.00;;;;;32.10;72.21;100611.09;4959642;28;45617;-71
2022/06/25 06:50:52;;;;;;;;;0.00;0.00;;;;;31.81;72.41;100605.41;4966837;28;45796;-71
2022/06/25 06:53:19;;;;;;;;;0.00;0.00;;;;;31.36;72.11;100603.50;4967177;28;45312;-69
2022/06/25 06:55:48;;;;;;;;;0.25;0.25;;;;;30.92;73.40;100611.72;4962955;28;46913;-71
2022/06/25 06:58:14;;;;;;;;;0.00;0.00;;;;;30.49;73.23;100613.00;4974727;28;46361;-73
2022/06/25 07:00:39;;;;;;;;;0.00;0.00;;;;;30.03;75.35;100602.38;4969138;28;45814;-72
2022/06/25 07:03:05;;;;;;;;;0.00;0.00;;;;;29.57;77.07;100610.63;4968307;28;46068;-71
2022/06/25 07:05:31;;;;;;;;;0.00;0.00;;;;;29.19;79.77;100605.81;4972724;28;45588;-70
2022/06/25 07:07:56;;;;;;;;;1.75;0.00;;;;;28.81;83.00;100608.63;4954050;28;45924;-74
2022/06/25 07:10:22;;;;;;;;;0.00;0.00;;;;;28.48;84.32;100603.50;4968362;28;45876;-71
2022/06/25 07:12:47;;;;;;;;;0.00;0.00;;;;;28.23;85.05;100600.34;4972704;28;45997;-71
2022/06/25 07:15:13;;;;;;;;;1.00;1.00;;;;;28.13;86.92;100609.16;4971964;28;45444;-74
2022/06/25 07:17:39;;;;;;;;;0.00;0.00;;;;;28.05;87.75;100610.00;4966069;28;46087;-73
2022/06/25 07:20:06;;;;;;;;;3.00;0.00;;;;;27.96;88.16;100619.25;4970401;28;45743;-71
2022/06/25 07:22:31;;;;;;;;;0.00;0.00;;;;;27.97;90.13;100608.84;4969868;28;45868;-70
2022/06/25 07:24:57;;;;;;;;;1.25;0.25;;;;;28.09;90.32;100611.81;4965456;28;45738;-71
2022/06/25 07:27:22;;;;;;;;;1.00;1.00;;;;;28.34;91.58;100615.78;4972377;28;45768;-70
2022/06/25 07:29:48;;;;;;;;;0.50;0.00;;;;;28.60;90.14;100614.97;4972593;28;45554;-69
2022/06/25 07:32:13;;;;;;;;;0.00;0.00;;;;;29.02;89.05;100623.66;4952484;28;45814;-70
2022/06/25 07:34:42;;;;;;;;;0.00;0.00;;;;;29.40;87.86;100614.41;4970460;28;45835;-73
2022/06/25 07:37:07;;;;;;;;;3.00;1.00;;;;;29.74;86.25;100621.00;4971988;28;45714;-70
2022/06/25 07:39:33;;;;;;;;;0.00;0.00;;;;;29.87;84.92;100619.13;4972834;28;45999;-72
2022/06/25 07:41:58;;;;;;;;;0.00;0.00;;;;;29.91;84.44;100625.75;4967471;28;45458;-69
2022/06/25 07:44:24;;;;;;;;;1.00;1.00;;;;;29.87;84.49;100627.59;4971881;28;45729;-71
2022/06/25 07:46:50;;;;;;;;;1.00;1.00;;;;;29.80;84.65;100618.81;4972076;28;46433;-69
2022/06/25 07:49:15;;;;;;;;;0.50;0.50;;;;;29.66;83.86;100630.38;4953535;28;45432;-71
2022/06/25 07:51:56;;;;;;;;;0.00;0.00;;;;;29.58;81.32;100622.75;4976532;28;45333;-71
2022/06/25 07:54:22;;;;;;;;;0.00;0.00;;;;;29.56;80.92;100631.59;4984093;28;45399;-72
2022/06/25 07:56:48;;;;;;;;;2.00;0.75;;;;;29.52;81.32;100626.94;4984185;28;46761;-71
2022/06/25 07:59:14;;;;;;;;;1.00;1.00;;;;;29.50;82.53;100637.78;4957591;28;45587;-70
2022/06/25 08:01:39;;;;;;;;;0.00;0.00;;;;;29.41;82.55;100635.00;4980956;28;45829;-70
2022/06/25 08:04:05;;;;;;;;;1.00;1.00;;;;;29.29;83.26;100644.19;4984556;28;45444;-67
2022/06/25 08:06:34;;;;;;;;;0.00;0.00;;;;;29.14;83.84;100648.34;4987818;28;45692;-70
2022/06/25 08:09:02;;;;;;;;;1.00;1.00;;;;;29.01;82.70;100649.41;4974172;28;45839;-70
2022/06/25 08:11:27;;;;;;;;;2.50;0.75;;;;;28.84;83.94;100642.63;4972004;28;45796;-69
2022/06/25 08:13:52;;;;;;;;;1.00;0.00;;;;;28.61;83.83;100629.88;4963762;28;45853;-71
2022/06/25 08:16:18;;;;;;;;;1.00;0.00;;;;;28.48;83.23;100643.00;4966661;28;45729;-71
2022/06/25 08:18:43;;;;;;;;;0.00;0.00;;;;;28.21;83.62;100653.47;4970470;28;46199;-70
2022/06/25 08:21:09;;;;;;;;;0.00;0.00;;;;;28.06;86.09;100651.13;4968340;28;45712;-70
2022/06/25 08:23:34;;;;;;;;;0.25;0.25;;;;;27.90;83.32;100651.56;4967287;28;45682;-70
2022/06/25 08:26:00;;;;;;;;;0.00;0.00;;;;;27.69;84.13;100647.72;4966951;28;45976;-69
2022/06/25 08:28:25;;;;;;;;;0.00;0.00;;;;;27.55;85.66;100645.03;4968592;28;45643;-71
2022/06/25 08:30:51;;;;;;;;;1.00;0.00;;;;;27.45;86.81;100660.22;4969090;28;45722;-70
2022/06/25 08:33:16;;;;;;;;;1.00;1.00;;;;;27.17;87.28;100629.44;4969455;28;45966;-69
2022/06/25 08:35:42;;;;;;;;;0.00;0.00;;;;;27.12;89.73;100657.72;4966751;28;45644;-70
2022/06/25 08:38:08;;;;;;;;;0.50;0.00;;;;;27.01;91.49;100660.00;4966077;28;45655;-70
2022/06/25 08:40:33;;;;;;;;;2.00;1.00;;;;;26.86;92.22;100671.66;4969367;28;45512;-70
2022/06/25 08:42:59;;;;;;;;;0.00;0.00;;;;;26.66;93.17;100659.72;4972034;28;45876;-71
2022/06/25 08:45:25;;;;;;;;;0.00;0.00;;;;;26.49;94.89;100671.69;4975746;28;46795;-70
2022/06/25 08:47:51;;;;;;;;;0.50;0.50;;;;;26.32;95.98;100665.91;4971657;28;45589;-71
2022/06/25 08:50:21;;;;;;;;;0.25;0.25;;;;;26.17;97.74;100665.13;4962117;28;45934;-69
2022/06/25 08:52:48;;;;;;;;;1.00;0.00;;;;;26.05;100.00;100668.47;4973017;28;45858;-69
2022/06/25 08:55:25;;;;;;;;;1.25;0.75;;;;;25.89;100.00;100667.13;4971333;28;45718;-70
2022/06/25 08:57:51;;;;;;;;;0.75;0.00;;;;;25.66;100.00;100655.81;4943974;28;45938;-69
2022/06/25 09:00:16;;;;;;;;;1.00;1.00;;;;;25.56;100.00;100664.44;4962022;28;45758;-71
2022/06/25 09:02:42;;;;;;;;;0.00;0.00;;;;;25.47;100.00;100669.97;4962914;28;46285;-70
2022/06/25 09:05:08;;;;;;;;;0.00;0.00;;;;;25.38;100.00;100663.41;4949935;28;47142;-70
2022/06/25 09:07:34;;;;;;;;;0.00;0.00;;;;;25.37;100.00;100672.97;4961947;28;46067;-68
2022/06/25 09:10:00;;;;;;;;;1.75;0.75;;;;;25.25;100.00;100667.00;4969564;28;45823;-70
2022/06/25 09:12:25;;;;;;;;;0.67;0.67;;;;;25.15;100.00;100673.63;4969243;28;45516;-70
2022/06/25 09:14:50;;;;;;;;;2.67;1.00;;;;;24.99;100.00;100675.91;4969610;28;46840;-69
2022/06/25 09:17:16;;;;;;;;;2.50;1.00;;;;;24.85;100.00;100668.28;4969534;28;45732;-69
2022/06/25 09:19:50;;;;;;;;;1.67;1.00;;;;;24.86;100.00;100666.31;4958700;28;45972;-70
2022/06/25 09:22:22;;;;;;;;;0.00;0.00;;;;;24.91;100.00;100665.38;4968739;28;45508;-69
2022/06/25 09:24:59;;;;;;;;;10.67;8.67;;;;;24.98;100.00;100663.00;4968747;28;46249;-69
2022/06/25 09:27:33;;;;;;;;;4.67;2.00;;;;;25.21;100.00;100664.00;4971320;28;45415;-68
2022/06/25 09:30:12;;;;;;;;;14.33;12.00;;;;;25.55;100.00;100665.59;4953221;28;45539;-68
2022/06/25 09:32:43;;;;;;;;;5.00;4.00;;;;;25.99;100.00;100652.03;4970662;28;46872;-70
2022/06/25 09:35:09;;;;;;;;;6.33;6.33;;;;;26.51;100.00;100652.53;4969027;28;48080;-72
2022/06/25 09:37:36;;;;;;;;;4.33;3.33;;;;;26.95;100.00;100656.47;4967634;28;45998;-70
2022/06/25 09:40:02;;;;;;;;;3.67;2.67;;;;;27.21;100.00;100657.78;4952596;28;45484;-69
2022/06/25 09:42:33;;;;;;;;;4.00;3.33;;;;;27.32;100.00;100650.69;4969531;28;47399;-67
2022/06/25 09:45:09;;;;;;;;;4.00;3.00;;;;;27.39;100.00;100644.63;4971886;28;46133;-69
2022/06/25 09:47:43;;;;;;;;;8.67;7.67;;;;;27.40;100.00;100649.13;4970426;28;45849;-68
2022/06/25 09:50:14;;;;;;;;;8.33;3.67;;;;;27.44;100.00;100650.09;4970584;28;45940;-71
2022/06/25 09:53:08;;;;;;;;;6.00;6.00;;;;;27.55;100.00;100647.84;4971633;28;45744;-71
2022/06/25 09:55:37;;;;;;;;;1.00;1.00;;;;;27.63;100.00;100650.66;4950490;28;48007;-70
2022/06/25 09:58:04;;;;;;;;;2.00;2.00;;;;;27.67;100.00;100653.66;4973490;28;45436;-68
2022/06/25 10:00:30;;;;;;;;;3.00;2.67;;;;;27.68;100.00;100648.84;4970784;28;45593;-70
2022/06/25 10:02:57;;;;;;;;;2.00;2.00;;;;;27.73;99.14;100662.81;4970642;28;45515;-71
2022/06/25 10:05:42;;;;;;;;;4.00;2.33;;;;;27.60;99.57;100647.69;4982590;23;46254;-78
2022/06/25 10:08:11;;;;;;;;;2.25;1.75;;;;;27.64;100.00;100655.16;4981028;28;45788;-80
2022/06/25 10:10:41;;;;;;;;;2.00;1.00;;;;;27.48;99.34;100645.47;4986556;28;45869;-77
2022/06/25 10:13:08;;;;;;;;;2.50;1.50;;;;;27.36;99.27;100637.66;4983986;28;45749;-79
2022/06/25 10:15:34;;;;;;;;;2.00;0.50;;;;;27.44;93.91;100661.38;4989931;28;46676;-80
2022/06/25 10:18:06;;;;;;;;;1.00;1.00;;;;;27.29;93.08;100648.50;4992945;28;45437;-81
2022/06/25 10:20:33;;;;;;;;;1.00;1.00;;;;;27.33;92.94;100654.38;4985779;28;46042;-79
2022/06/25 10:23:00;;;;;;;;;1.25;1.25;;;;;27.25;94.29;100653.97;4993718;28;45923;-80
2022/06/25 10:25:27;;;;;;;;;1.00;1.00;;;;;27.10;95.26;100643.16;4988739;28;46021;-77
2022/06/25 10:28:10;;;;;;;;;2.00;1.33;;;;;27.10;96.59;100649.59;4975822;28;45973;-79
2022/06/25 10:30:50;;;;;;;;;3.75;1.00;;;;;27.21;98.25;100647.31;4984208;28;45873;-79
2022/06/25 10:33:24;;;;;;;;;3.00;3.00;;;;;27.30;98.63;100625.66;4990400;28;45835;-80
2022/06/25 10:35:54;;;;;;;;;0.00;0.00;;;;;27.48;94.96;100625.75;4972170;28;46781;-80
2022/06/25 10:38:21;;;;;;;;;2.75;1.00;;;;;27.55;94.94;100616.84;4987247;28;45690;-78
2022/06/25 10:40:49;;;;;;;;;1.67;1.67;;;;;27.81;94.76;100625.34;4986350;28;45793;-80
2022/06/25 10:43:45;;;;;;;;;1.00;1.00;;;;;28.16;93.17;100639.53;4976980;28;47576;-80
2022/06/25 10:46:31;;;;;;;;;1.00;1.00;;;;;28.28;92.77;100625.59;4979755;28;45584;-77
2022/06/25 10:49:11;;;;;;;;;1.00;1.00;;;;;28.52;94.51;100635.53;4989198;28;45617;-82
2022/06/25 10:51:48;;;;;;;;;2.00;1.00;;;;;28.67;92.48;100640.69;4995253;28;45528;-82
2022/06/25 10:54:34;;;;;;;;;1.25;1.25;;;;;28.72;91.84;100641.69;4997062;28;45922;-82
2022/06/25 10:57:00;;;;;;;;;1.75;1.75;;;;;28.70;90.80;100642.84;4995019;28;45959;-81
2022/06/25 10:59:32;;;;;;;;;2.75;2.00;;;;;28.70;90.75;100642.03;4990062;28;45782;-80
2022/06/25 11:02:00;;;;;;;;;2.00;2.00;;;;;28.62;90.37;100635.19;4964077;28;45407;-81
2022/06/25 11:04:36;;;;;;;;;0.50;0.50;;;;;28.76;91.89;100637.00;4988532;28;45613;-82
2022/06/25 11:07:19;;;;;;;;;2.75;1.75;;;;;28.92;88.13;100645.78;4988818;28;46083;-80
2022/06/25 11:09:54;;;;;;;;;2.00;1.00;;;;;29.02;85.05;100639.78;4996860;28;45466;-80
2022/06/25 11:12:20;;;;;;;;;1.75;1.75;;;;;29.13;85.20;100645.88;4998075;28;45845;-83
2022/06/25 11:15:10;;;;;;;;;1.25;1.25;;;;;29.12;85.09;100630.09;4987644;28;45657;-80
2022/06/25 11:17:40;;;;;;;;;1.00;1.00;;;;;29.28;84.29;100648.16;4996611;28;45927;-81
2022/06/25 11:20:12;;;;;;;;;1.75;0.75;;;;;29.25;86.00;100640.38;5007341;28;45467;-80
2022/06/25 11:22:48;;;;;;;;;2.00;1.00;;;;;29.39;84.88;100645.81;5002994;28;46060;-80
2022/06/25 11:30:43;;;;;;;;;1.00;1.00;;;;;29.61;83.07;100650.34;5002183;28;45719;-81
2022/06/25 11:33:09;;;;;;;;;2.00;2.00;;;;;29.59;82.49;100661.16;4996948;28;45387;-82
2022/06/25 11:35:44;;;;;;;;;0.75;0.75;;;;;29.44;84.57;100645.63;4998763;28;45392;-81